Pagrindinis puslapis
METAR-TAF:

METAR-TAF

Oro uostai :

Esbjergas, Danija

platuma: 55-32N, ilguma: 008-34E, Aukštis: 30 m

Dabartinis oras

Ataskaita buvo paskelbta 21 minutes, ne 01:50 UTC
Vėjas 2 kt iš Rytų
Temperatūra 14°C
Drėgmė 100%
Slėgis 1026 hPa
Matomumas: 0150 m
rūkas

METAR: EKEB 240150Z AUTO 09002KT 0150 R08/0700D R26/0650N FG VV001 14/14 Q1026

Laikas: 04:11 (02:11 UTC)

Prognozė

Ataskaita buvo paskelbta 8 valandos ir 44 minutes, ne 17:27 UTC
Prognozė galioja nuo 23 metu 18 UTC su 23 metu 22 UTC
Vėjas 12 kt iš Vakarų/Pietvakarių
Matomumas 10 km arba daugiau
Išsisklaidę debesys ne aukštis 1200 ft
Tapsmas
nuo 23 metu 19 UTC su 23 metu 22 UTC
Vėjas 2 kt nuo kintamojo kryptimis

TAF: EKEB 231727Z 2318/2322 24012KT 9999 SCT012 BECMG 2319/2322 VRB02KT

Orai ataskaitas ir orų prognozės (METAR, TAF).

turimą stotys yra geltonos ir raudonos taškus žemėlapyje.

Perkelti pele per norėdami pamatyti stoties vardą.

Tada spustelėkite, norėdami matyti oro stebėjimo ir prognozės.

Norėdami pakeisti žemėlapį: spustelėkite ant žalios mygtukų su juodo kryžiaus žemyn,; žalią mygtuką su brūkšneliu, jei norite nutolinti; arba žalių rodyklių gretimoms žemėlapius.


METAR-TAF: